createdAt,value
2019-02-10T00:00:55.788Z,15.10
2019-02-10T00:03:23.597Z,16.73
2019-02-10T00:05:51.431Z,20.27
2019-02-10T00:08:19.284Z,16.55
2019-02-10T00:10:47.135Z,16.85
2019-02-10T00:13:34.069Z,18.85
2019-02-10T00:16:03.213Z,18.75
2019-02-10T00:18:31.031Z,15.45
2019-02-10T00:20:58.885Z,18.42
2019-02-10T00:23:26.704Z,19.57
2019-02-10T00:25:54.541Z,19.48
2019-02-10T00:28:22.354Z,22.87
2019-02-10T00:30:50.181Z,20.82
2019-02-10T00:33:18.013Z,19.80
2019-02-10T00:35:45.821Z,17.67
2019-02-10T00:40:47.509Z,16.25
2019-02-10T00:43:15.376Z,16.17
2019-02-10T00:45:43.276Z,18.48
2019-02-10T00:48:11.157Z,15.75
2019-02-10T00:50:38.965Z,17.98
2019-02-10T00:53:06.821Z,18.55
2019-02-10T00:55:34.626Z,16.17
2019-02-10T00:58:02.461Z,17.77
2019-02-10T01:00:30.285Z,15.18
2019-02-10T01:02:58.117Z,20.70
2019-02-10T01:05:25.929Z,20.23
2019-02-10T01:07:53.739Z,18.98
2019-02-10T01:13:10.254Z,22.05
2019-02-10T01:15:38.066Z,17.32
2019-02-10T01:18:05.950Z,17.75
2019-02-10T01:20:33.770Z,18.95
2019-02-10T01:23:01.618Z,15.68
2019-02-10T01:25:29.451Z,16.00
2019-02-10T01:27:57.294Z,19.05
2019-02-10T01:30:25.107Z,19.75
2019-02-10T01:32:52.905Z,21.90
2019-02-10T01:35:20.775Z,17.85
2019-02-10T01:37:48.872Z,19.10
2019-02-10T01:40:16.694Z,21.12
2019-02-10T01:42:44.501Z,18.27
2019-02-10T01:45:12.341Z,16.35
2019-02-10T01:47:40.133Z,18.92
2019-02-10T01:50:08.591Z,17.57
2019-02-10T01:52:36.406Z,18.70
2019-02-10T01:55:04.854Z,19.98
2019-02-10T01:57:32.680Z,23.42
2019-02-10T02:00:00.534Z,24.50
2019-02-10T02:02:28.348Z,17.32
2019-02-10T02:04:56.191Z,17.07
2019-02-10T02:07:24.018Z,22.15
2019-02-10T02:09:51.864Z,19.80
2019-02-10T02:12:19.686Z,15.78
2019-02-10T02:14:47.518Z,18.55
2019-02-10T02:17:15.333Z,16.60
2019-02-10T02:19:43.125Z,17.12
2019-02-10T02:22:10.973Z,16.25
2019-02-10T02:24:38.771Z,20.27
2019-02-10T02:27:06.622Z,17.95
2019-02-10T02:29:34.418Z,14.95
2019-02-10T02:32:02.252Z,17.87
2019-02-10T02:34:30.070Z,16.97
2019-02-10T02:37:07.350Z,18.25
2019-02-10T02:39:27.413Z,13.05
2019-02-10T02:41:55.233Z,17.20
2019-02-10T02:44:23.034Z,16.67
2019-02-10T02:46:50.859Z,19.52
2019-02-10T02:49:18.653Z,17.70
2019-02-10T02:51:46.509Z,18.27
2019-02-10T02:54:14.337Z,20.30
2019-02-10T02:56:42.161Z,16.52
2019-02-10T02:59:09.962Z,14.75
2019-02-10T03:01:37.797Z,15.98
2019-02-10T03:04:05.602Z,15.20
2019-02-10T03:06:52.433Z,15.10
2019-02-10T03:09:20.223Z,16.00
2019-02-10T03:11:48.053Z,14.87
2019-02-10T03:14:15.869Z,19.60
2019-02-10T03:16:43.737Z,14.18
2019-02-10T03:19:11.573Z,19.87
2019-02-10T03:21:39.366Z,16.65
2019-02-10T03:24:07.194Z,20.30
2019-02-10T03:26:34.996Z,18.10
2019-02-10T03:29:02.834Z,17.42
2019-02-10T03:31:30.649Z,21.50
2019-02-10T03:33:58.458Z,17.10
2019-02-10T03:36:26.249Z,16.77
2019-02-10T03:38:54.069Z,19.55
2019-02-10T03:41:21.869Z,17.95
2019-02-10T03:46:23.102Z,16.00
2019-02-10T03:48:50.958Z,15.93
2019-02-10T03:51:18.757Z,16.62
2019-02-10T03:53:46.591Z,14.13
2019-02-10T03:56:14.425Z,16.20
2019-02-10T03:58:42.258Z,16.82
2019-02-10T04:01:10.058Z,15.20
2019-02-10T04:03:37.867Z,18.12
2019-02-10T04:06:05.668Z,17.35
2019-02-10T04:08:33.494Z,18.05
2019-02-10T04:11:01.288Z,16.37
2019-02-10T04:13:29.121Z,22.32
2019-02-10T04:15:56.939Z,20.40
2019-02-10T04:18:24.748Z,18.37
2019-02-10T04:20:52.565Z,17.15
2019-02-10T04:23:20.355Z,18.65
2019-02-10T04:25:48.182Z,20.57
2019-02-10T04:28:15.994Z,16.97
2019-02-10T04:30:43.843Z,18.62
2019-02-10T04:33:11.636Z,15.48
2019-02-10T04:38:33.404Z,14.83
2019-02-10T04:41:01.541Z,15.28
2019-02-10T04:43:29.328Z,17.60
2019-02-10T04:45:57.176Z,17.57
2019-02-10T04:48:24.961Z,18.35
2019-02-10T04:50:52.809Z,21.15
2019-02-10T04:53:20.595Z,21.77
2019-02-10T04:56:07.560Z,21.10
2019-02-10T04:58:35.358Z,21.12
2019-02-10T05:01:03.226Z,15.43
2019-02-10T05:03:31.058Z,17.15
2019-02-10T05:05:58.873Z,15.88
2019-02-10T05:08:26.679Z,15.48
2019-02-10T05:10:54.514Z,18.77
2019-02-10T05:13:22.333Z,18.48
2019-02-10T05:15:50.125Z,18.77
2019-02-10T05:18:18.062Z,16.23
2019-02-10T05:20:45.861Z,16.20
2019-02-10T05:23:13.681Z,17.57
2019-02-10T05:25:41.491Z,16.90
2019-02-10T05:28:09.355Z,18.80
2019-02-10T05:30:37.150Z,15.95
2019-02-10T05:33:05.151Z,17.07
2019-02-10T05:35:32.950Z,14.78
2019-02-10T05:38:04.205Z,15.90
2019-02-10T05:40:30.302Z,16.50
2019-02-10T05:42:58.127Z,14.85
2019-02-10T05:45:25.922Z,16.97
2019-02-10T05:47:53.744Z,14.50
2019-02-10T05:50:21.533Z,15.78
2019-02-10T05:52:49.350Z,15.45
2019-02-10T05:55:17.161Z,18.25
2019-02-10T05:57:44.981Z,17.25
2019-02-10T06:00:12.906Z,13.95
2019-02-10T06:02:40.689Z,15.40
2019-02-10T06:05:18.688Z,15.03
2019-02-10T06:07:46.487Z,16.57
2019-02-10T06:10:14.349Z,13.85
2019-02-10T06:12:42.145Z,16.10
2019-02-10T06:15:10.189Z,16.02
2019-02-10T06:17:37.994Z,13.65
2019-02-10T06:20:06.049Z,16.30
2019-02-10T06:22:33.862Z,14.85
2019-02-10T06:25:01.685Z,16.45
2019-02-10T06:27:29.492Z,14.55
2019-02-10T06:29:57.334Z,14.10
2019-02-10T06:32:25.156Z,13.55
2019-02-10T06:34:52.956Z,14.38
2019-02-10T06:37:20.780Z,14.05
2019-02-10T06:39:48.611Z,13.50
2019-02-10T06:42:17.997Z,16.07
2019-02-10T06:44:45.946Z,14.18
2019-02-10T06:47:13.777Z,14.00
2019-02-10T06:49:41.587Z,13.30
2019-02-10T06:52:09.376Z,14.10
2019-02-10T06:57:31.957Z,13.80
2019-02-10T07:00:18.805Z,12.88
2019-02-10T07:03:11.881Z,13.00
2019-02-10T07:05:39.685Z,15.18
2019-02-10T07:08:07.528Z,12.73
2019-02-10T07:10:35.327Z,12.53
2019-02-10T07:13:03.152Z,14.47
2019-02-10T07:15:50.025Z,13.68
2019-02-10T07:18:44.214Z,13.50
2019-02-10T07:21:12.010Z,12.25
2019-02-10T07:23:58.901Z,13.48
2019-02-10T07:26:37.096Z,13.53
2019-02-10T07:29:14.158Z,12.10
2019-02-10T07:31:49.008Z,12.98
2019-02-10T07:34:22.752Z,14.05
2019-02-10T07:36:55.085Z,11.83
2019-02-10T07:39:41.978Z,12.20
2019-02-10T07:42:14.276Z,13.28
2019-02-10T07:45:01.144Z,14.25
2019-02-10T07:47:48.057Z,14.05
2019-02-10T07:50:35.789Z,11.80
2019-02-10T07:53:23.573Z,13.00
2019-02-10T07:56:10.529Z,12.37
2019-02-10T07:58:57.470Z,13.72
2019-02-10T08:01:44.369Z,12.68
2019-02-10T08:04:31.286Z,12.05
2019-02-10T08:07:11.938Z,12.30
2019-02-10T08:09:58.844Z,11.25
2019-02-10T08:12:30.214Z,13.05
2019-02-10T08:15:17.261Z,11.80
2019-02-10T08:18:04.138Z,12.05
2019-02-10T08:20:51.051Z,11.95
2019-02-10T08:23:37.932Z,12.43
2019-02-10T08:26:24.858Z,11.80
2019-02-10T08:29:11.745Z,11.90
2019-02-10T08:31:58.841Z,11.93
2019-02-10T08:34:45.753Z,11.90
2019-02-10T08:37:32.633Z,12.00
2019-02-10T08:40:19.789Z,11.80
2019-02-10T08:43:06.695Z,12.05
2019-02-10T08:45:53.601Z,12.10
2019-02-10T08:48:40.490Z,11.90
2019-02-10T08:51:27.406Z,12.30
2019-02-10T08:53:55.256Z,11.85
2019-02-10T08:56:23.156Z,12.05
2019-02-10T08:58:50.995Z,12.20
2019-02-10T09:01:18.849Z,12.85
2019-02-10T09:03:46.682Z,13.43
2019-02-10T09:06:14.515Z,12.47
2019-02-10T09:08:42.364Z,12.10
2019-02-10T09:11:10.214Z,12.70
2019-02-10T09:13:38.061Z,12.25
2019-02-10T09:16:05.965Z,12.93
2019-02-10T09:18:33.804Z,12.63
2019-02-10T09:21:01.651Z,12.45
2019-02-10T09:23:29.500Z,12.53
2019-02-10T09:25:57.358Z,12.45
2019-02-10T09:28:25.210Z,12.53
2019-02-10T09:30:53.049Z,12.90
2019-02-10T09:33:20.952Z,12.40
2019-02-10T09:35:48.767Z,13.05
2019-02-10T09:38:16.632Z,12.70
2019-02-10T09:40:44.466Z,14.15
2019-02-10T09:43:12.377Z,12.75
2019-02-10T09:45:40.278Z,13.03
2019-02-10T09:48:08.114Z,12.85
2019-02-10T09:50:35.947Z,12.40
2019-02-10T09:53:03.834Z,12.37
2019-02-10T09:55:31.859Z,12.78
2019-02-10T09:57:59.746Z,12.40
2019-02-10T10:00:27.625Z,12.35
2019-02-10T10:02:55.489Z,14.20
2019-02-10T10:05:23.366Z,12.78
2019-02-10T10:07:51.258Z,12.30
2019-02-10T10:10:19.094Z,12.65
2019-02-10T10:12:46.948Z,12.47
2019-02-10T10:15:15.193Z,11.60
2019-02-10T10:17:43.014Z,11.48
2019-02-10T10:20:11.747Z,11.38
2019-02-10T10:22:39.584Z,12.15
2019-02-10T10:27:41.854Z,12.10
2019-02-10T10:30:11.221Z,11.73
2019-02-10T10:32:39.065Z,11.70
2019-02-10T10:35:06.928Z,11.78
2019-02-10T10:37:34.776Z,11.75
2019-02-10T10:40:15.349Z,11.38
2019-02-10T10:42:32.799Z,11.70
2019-02-10T10:45:00.699Z,11.80
2019-02-10T10:47:28.798Z,11.53
2019-02-10T10:49:56.674Z,11.57
2019-02-10T10:52:24.497Z,11.35
2019-02-10T10:54:52.406Z,11.73
2019-02-10T10:57:20.354Z,11.55
2019-02-10T11:00:07.249Z,11.70
2019-02-10T11:02:35.159Z,11.78
2019-02-10T11:05:03.037Z,12.35
2019-02-10T11:07:49.994Z,13.98
2019-02-10T11:10:17.888Z,12.75
2019-02-10T11:12:45.703Z,13.50
2019-02-10T11:15:14.611Z,12.70
2019-02-10T11:17:42.453Z,13.10
2019-02-10T11:20:10.326Z,13.58
2019-02-10T11:22:38.157Z,12.63
2019-02-10T11:25:06.157Z,13.10
2019-02-10T11:27:34.009Z,13.25
2019-02-10T11:30:03.894Z,13.65
2019-02-10T11:32:31.799Z,12.65
2019-02-10T11:34:59.706Z,13.75
2019-02-10T11:37:27.586Z,13.20
2019-02-10T11:39:55.457Z,12.75
2019-02-10T11:42:23.362Z,12.88
2019-02-10T11:44:51.240Z,12.90
2019-02-10T11:47:19.122Z,12.75
2019-02-10T11:49:47.972Z,13.20
2019-02-10T11:52:15.894Z,13.62
2019-02-10T11:54:43.729Z,13.90
2019-02-10T11:57:11.730Z,13.10
2019-02-10T11:59:39.820Z,13.65
2019-02-10T12:02:07.703Z,13.38
2019-02-10T12:04:35.540Z,13.48
2019-02-10T12:07:03.413Z,13.43
2019-02-10T12:09:31.313Z,13.25
2019-02-10T12:11:59.299Z,13.22
2019-02-10T12:14:27.162Z,13.70
2019-02-10T12:16:55.034Z,14.50
2019-02-10T12:19:22.888Z,13.35
2019-02-10T12:21:50.777Z,14.25
2019-02-10T12:24:18.658Z,13.38
2019-02-10T12:26:46.489Z,13.28
2019-02-10T12:29:14.349Z,13.50
2019-02-10T12:31:42.287Z,13.78
2019-02-10T12:34:10.173Z,12.88
2019-02-10T12:36:38.068Z,12.78
2019-02-10T12:42:00.874Z,12.75
2019-02-10T12:44:28.843Z,12.98
2019-02-10T12:46:56.704Z,12.47
2019-02-10T12:49:24.822Z,12.70
2019-02-10T12:51:52.641Z,13.10
2019-02-10T12:54:20.604Z,14.20
2019-02-10T12:56:48.455Z,13.35
2019-02-10T12:59:16.323Z,13.72
2019-02-10T13:01:44.215Z,15.65
2019-02-10T13:04:12.082Z,13.08
2019-02-10T13:06:39.961Z,13.90
2019-02-10T13:11:45.728Z,14.00
2019-02-10T13:14:13.605Z,14.00
2019-02-10T13:16:41.495Z,13.50
2019-02-10T13:19:09.384Z,13.80
2019-02-10T13:21:37.268Z,14.13
2019-02-10T13:24:05.230Z,13.83
2019-02-10T13:26:33.207Z,13.62
2019-02-10T13:29:01.105Z,13.35
2019-02-10T13:31:29.017Z,13.50
2019-02-10T13:33:56.868Z,13.78
2019-02-10T13:36:24.774Z,14.18
2019-02-10T13:38:52.648Z,13.80
2019-02-10T13:41:20.608Z,14.33
2019-02-10T13:43:48.486Z,17.35
2019-02-10T13:46:16.377Z,13.20
2019-02-10T13:48:44.239Z,13.25
2019-02-10T13:51:12.123Z,13.90
2019-02-10T13:53:39.985Z,13.90
2019-02-10T13:56:07.890Z,13.13
2019-02-10T13:58:35.817Z,14.73
2019-02-10T14:01:03.686Z,13.72
2019-02-10T14:03:31.531Z,14.60
2019-02-10T14:05:59.439Z,14.43
2019-02-10T14:08:27.288Z,14.60
2019-02-10T14:10:55.225Z,14.25
2019-02-10T14:13:23.134Z,15.30
2019-02-10T14:15:50.965Z,14.98
2019-02-10T14:18:18.818Z,14.70
2019-02-10T14:20:46.722Z,15.15
2019-02-10T14:23:14.615Z,14.65
2019-02-10T14:25:42.461Z,15.58
2019-02-10T14:28:10.327Z,13.55
2019-02-10T14:30:38.167Z,14.05
2019-02-10T14:33:06.075Z,14.70
2019-02-10T14:35:33.961Z,14.93
2019-02-10T14:38:01.874Z,14.40
2019-02-10T14:40:33.639Z,15.18
2019-02-10T14:42:59.316Z,16.05
2019-02-10T14:45:27.171Z,16.10
2019-02-10T14:47:55.082Z,16.52
2019-02-10T14:50:22.904Z,15.20
2019-02-10T14:52:50.784Z,16.60
2019-02-10T14:55:18.979Z,14.87
2019-02-10T14:57:46.835Z,15.80
2019-02-10T15:00:14.705Z,15.28
2019-02-10T15:02:42.646Z,14.98
2019-02-10T15:05:10.574Z,15.08
2019-02-10T15:07:38.511Z,15.60
2019-02-10T15:10:07.712Z,15.53
2019-02-10T15:12:35.586Z,13.78
2019-02-10T15:15:03.578Z,15.25
2019-02-10T15:17:31.465Z,14.20
2019-02-10T15:19:59.326Z,13.95
2019-02-10T15:22:27.180Z,13.60
2019-02-10T15:24:55.073Z,14.58
2019-02-10T15:27:22.925Z,13.58
2019-02-10T15:29:50.881Z,16.07
2019-02-10T15:32:18.744Z,14.30
2019-02-10T15:34:46.593Z,14.58
2019-02-10T15:37:14.450Z,14.05
2019-02-10T15:39:42.347Z,13.32
2019-02-10T15:42:10.221Z,15.38
2019-02-10T15:44:38.198Z,13.30
2019-02-10T15:47:06.040Z,14.13
2019-02-10T15:49:33.875Z,13.80
2019-02-10T15:52:01.737Z,14.90
2019-02-10T15:54:29.589Z,14.10
2019-02-10T15:56:57.526Z,13.93
2019-02-10T15:59:25.382Z,14.47
2019-02-10T16:01:53.403Z,14.80
2019-02-10T16:04:21.311Z,14.85
2019-02-10T16:09:23.042Z,14.87
2019-02-10T16:11:50.965Z,14.90
2019-02-10T16:14:18.825Z,14.25
2019-02-10T16:16:46.797Z,14.50
2019-02-10T16:19:14.601Z,15.75
2019-02-10T16:21:42.511Z,15.85
2019-02-10T16:24:10.348Z,16.62
2019-02-10T16:29:11.495Z,14.68
2019-02-10T16:31:39.477Z,14.95
2019-02-10T16:34:07.317Z,15.85
2019-02-10T16:36:35.178Z,14.65
2019-02-10T16:41:51.735Z,14.23
2019-02-10T16:44:19.566Z,13.83
2019-02-10T16:46:47.472Z,14.43
2019-02-10T16:49:15.367Z,13.90
2019-02-10T16:51:43.241Z,13.03
2019-02-10T16:54:11.184Z,13.30
2019-02-10T16:59:43.526Z,13.03
2019-02-10T17:02:11.457Z,13.15
2019-02-10T17:04:39.429Z,13.40
2019-02-10T17:07:07.712Z,13.60
2019-02-10T17:09:35.664Z,14.30
2019-02-10T17:12:03.533Z,13.40
2019-02-10T17:14:31.410Z,13.25
2019-02-10T17:16:59.275Z,13.68
2019-02-10T17:19:27.238Z,13.30
2019-02-10T17:21:55.085Z,14.90
2019-02-10T17:24:22.958Z,13.80
2019-02-10T17:26:50.817Z,14.50
2019-02-10T17:29:18.682Z,15.80
2019-02-10T17:31:46.542Z,14.98
2019-02-10T17:39:22.038Z,14.40
2019-02-10T17:41:49.938Z,16.00
2019-02-10T17:44:17.840Z,16.17
2019-02-10T17:46:45.658Z,15.32
2019-02-10T17:49:13.593Z,15.72
2019-02-10T17:51:41.458Z,14.95
2019-02-10T17:54:09.408Z,16.93
2019-02-10T17:56:37.299Z,14.58
2019-02-10T17:59:05.292Z,14.93
2019-02-10T18:01:33.161Z,14.03
2019-02-10T18:04:01.034Z,14.13
2019-02-10T18:06:28.930Z,15.05
2019-02-10T18:08:56.784Z,13.65
2019-02-10T18:11:30.893Z,13.70
2019-02-10T18:13:54.234Z,13.90
2019-02-10T18:16:41.090Z,13.30
2019-02-10T18:19:27.971Z,13.45
2019-02-10T18:22:14.883Z,13.53
2019-02-10T18:25:01.761Z,14.65
2019-02-10T18:27:37.833Z,13.95
2019-02-10T18:30:25.314Z,13.68
2019-02-10T18:33:12.180Z,13.93
2019-02-10T18:35:59.160Z,13.62
2019-02-10T18:38:46.090Z,13.30
2019-02-10T18:41:39.097Z,12.95
2019-02-10T18:44:21.580Z,13.00
2019-02-10T18:47:08.559Z,13.18
2019-02-10T18:49:55.441Z,13.62
2019-02-10T18:52:42.482Z,13.50
2019-02-10T18:55:29.358Z,13.83
2019-02-10T18:58:16.374Z,13.00
2019-02-10T19:01:03.227Z,13.10
2019-02-10T19:03:50.079Z,12.93
2019-02-10T19:06:36.899Z,13.15
2019-02-10T19:12:18.262Z,12.75
2019-02-10T19:15:05.081Z,12.75
2019-02-10T19:17:52.248Z,14.03
2019-02-10T19:20:39.097Z,13.93
2019-02-10T19:23:26.044Z,13.90
2019-02-10T19:26:12.877Z,13.93
2019-02-10T19:28:59.794Z,14.40
2019-02-10T19:31:46.666Z,13.25
2019-02-10T19:34:33.566Z,13.50
2019-02-10T19:37:20.423Z,13.80
2019-02-10T19:40:07.335Z,14.03
2019-02-10T19:42:54.178Z,14.65
2019-02-10T19:45:41.109Z,14.03
2019-02-10T19:48:28.112Z,14.40
2019-02-10T19:51:15.043Z,14.63
2019-02-10T19:53:50.532Z,14.40
2019-02-10T19:59:51.514Z,15.55
2019-02-10T20:02:27.371Z,15.63
2019-02-10T20:05:14.393Z,16.20
2019-02-10T20:07:54.758Z,15.60
2019-02-10T20:10:41.725Z,14.75
2019-02-10T20:13:18.994Z,14.70
2019-02-10T20:16:05.872Z,14.50
2019-02-10T20:18:42.598Z,15.10
2019-02-10T20:21:29.510Z,15.05
2019-02-10T20:24:16.449Z,16.80
2019-02-10T20:27:03.420Z,15.43
2019-02-10T20:29:50.342Z,15.48
2019-02-10T20:32:37.212Z,16.10
2019-02-10T20:35:27.094Z,16.12
2019-02-10T20:38:14.114Z,15.55
2019-02-10T20:41:01.042Z,16.45
2019-02-10T20:43:47.881Z,16.85
2019-02-10T20:46:34.792Z,17.05
2019-02-10T20:49:21.613Z,16.60
2019-02-10T20:52:08.494Z,17.95
2019-02-10T20:54:55.311Z,17.15
2019-02-10T20:57:42.306Z,16.25
2019-02-10T21:00:22.114Z,16.87
2019-02-10T21:03:08.943Z,17.55
2019-02-10T21:05:55.839Z,17.75
2019-02-10T21:08:42.833Z,18.70
2019-02-10T21:11:29.708Z,17.77
2019-02-10T21:14:18.927Z,18.67
2019-02-10T21:17:06.108Z,17.25
2019-02-10T21:19:52.943Z,17.52
2019-02-10T21:22:39.861Z,18.23
2019-02-10T21:25:15.138Z,17.65
2019-02-10T21:28:02.106Z,17.25
2019-02-10T21:30:48.919Z,18.92
2019-02-10T21:33:35.782Z,17.23
2019-02-10T21:36:24.943Z,17.98
2019-02-10T21:39:11.790Z,17.57
2019-02-10T21:41:58.605Z,17.30
2019-02-10T21:44:45.567Z,17.07
2019-02-10T21:47:22.315Z,17.50
2019-02-10T21:49:50.149Z,17.05
2019-02-10T21:52:17.998Z,16.90
2019-02-10T21:54:45.841Z,16.10
2019-02-10T21:57:13.857Z,16.80
2019-02-10T21:59:41.706Z,16.45
2019-02-10T22:02:09.561Z,17.12
2019-02-10T22:04:37.426Z,16.75
2019-02-10T22:07:05.246Z,16.02
2019-02-10T22:09:33.120Z,16.23
2019-02-10T22:12:00.967Z,16.37
2019-02-10T22:14:28.787Z,15.43
2019-02-10T22:19:30.440Z,14.90
2019-02-10T22:21:58.308Z,13.90
2019-02-10T22:24:26.138Z,13.10
2019-02-10T22:26:53.986Z,12.90
2019-02-10T22:29:21.786Z,13.00
2019-02-10T22:31:49.647Z,13.30
2019-02-10T22:34:17.457Z,12.88
2019-02-10T22:36:45.303Z,14.30
2019-02-10T22:39:13.128Z,13.38
2019-02-10T22:41:40.950Z,13.95
2019-02-10T22:44:08.787Z,13.58
2019-02-10T22:46:36.610Z,15.45
2019-02-10T22:49:04.439Z,13.50
2019-02-10T22:51:32.330Z,14.10
2019-02-10T22:54:00.163Z,14.18
2019-02-10T22:56:28.035Z,14.40
2019-02-10T22:58:55.892Z,14.75
2019-02-10T23:01:23.753Z,14.23
2019-02-10T23:03:51.621Z,13.32
2019-02-10T23:06:19.417Z,14.00
2019-02-10T23:08:47.270Z,12.80
2019-02-10T23:11:15.061Z,12.80
2019-02-10T23:13:42.901Z,12.60
2019-02-10T23:16:10.705Z,13.93
2019-02-10T23:18:38.541Z,12.80
2019-02-10T23:21:06.338Z,13.45
2019-02-10T23:23:34.181Z,14.33
2019-02-10T23:26:01.996Z,12.33
2019-02-10T23:28:29.846Z,12.98
2019-02-10T23:30:57.674Z,13.40
2019-02-10T23:33:25.533Z,12.10
2019-02-10T23:35:53.341Z,12.60
2019-02-10T23:38:21.189Z,12.28
2019-02-10T23:40:48.993Z,13.05
2019-02-10T23:43:16.834Z,12.90
2019-02-10T23:45:44.741Z,13.88
2019-02-10T23:48:12.542Z,12.82
2019-02-10T23:50:40.385Z,12.70
2019-02-10T23:53:08.195Z,13.13
2019-02-10T23:55:36.024Z,17.10
2019-02-10T23:58:03.823Z,15.03
